Time;durP1;ratioP1;P1;durP2;ratioP2;P2;SDS_P1;SDS_P2;PMS_P1;PMS_P2;Temp;Humidity;BMP_temperature;BMP_pressure;BME280_temperature;BME280_humidity;BME280_pressure;Samples;Min_cycle;Max_cycle;Signal;HPM_P1;HPM_P2
2023/02/10 00:01:59;;;;;;;;;;;;;;;;;;4421986;32;20356;-70
2023/02/10 00:04:25;;;;;;;;;;;;;;;;;;4422626;32;19952;-71
2023/02/10 00:06:50;;;;;;;;;;;;;;;;;;4423406;32;19937;-69
2023/02/10 00:09:15;;;;;;;;;;;;;;;;;;4424738;32;19964;-70
2023/02/10 00:11:56;;;;;;;;;;;;;;;;;;4421797;32;19982;-70
2023/02/10 00:14:21;;;;;;;;;;;;;;;;;;4423353;32;19941;-69
2023/02/10 00:16:47;;;;;;;;;;;;;;;;;;4423245;32;19971;-70
2023/02/10 00:19:12;;;;;;;;;;;;;;;;;;4423590;32;19991;-70
2023/02/10 00:21:37;;;;;;;;;;;;;;;;;;4422425;32;19949;-69
2023/02/10 00:24:02;;;;;;;;;;;;;;;;;;4423083;32;19983;-70
2023/02/10 00:26:27;;;;;;;;;;;;;;;;;;4423218;32;20358;-70
2023/02/10 00:28:52;;;;;;;;;;;;;;;;;;4421310;32;19948;-69
2023/02/10 00:31:18;;;;;;;;;;;;;;;;;;4421521;32;19937;-70
2023/02/10 00:33:43;;;;;;;;;;;;;;;;;;4423854;32;19933;-70
2023/02/10 00:36:08;;;;;;;;;;;;;;;;;;4424173;32;19948;-71
2023/02/10 00:38:33;;;;;;;;;;;;;;;;;;4421818;32;19973;-70
2023/02/10 00:40:59;;;;;;;;;;;;;;;;;;4424790;32;19952;-69
2023/02/10 00:43:24;;;;;;;;;;;;;;;;;;4422812;32;19951;-70
2023/02/10 00:45:49;;;;;;;;;;;;;;;;;;4421563;32;19949;-69
2023/02/10 00:48:14;;;;;;;;;;;;;;;;;;4423077;32;19948;-70
2023/02/10 00:50:39;;;;;;;;;;;;;;;;;;4422200;32;20023;-69
2023/02/10 00:53:04;;;;;;;;;;;;;;;;;;4420923;32;19941;-70
2023/02/10 00:55:29;;;;;;;;;;;;;;;;;;4423924;32;19951;-70
2023/02/10 00:57:54;;;;;;;;;;;;;;;;;;4423108;32;19929;-70
2023/02/10 01:00:19;;;;;;;;;;;;;;;;;;4422369;32;20317;-70
2023/02/10 01:02:44;;;;;;;;;;;;;;;;;;4421991;32;19937;-71
2023/02/10 01:05:10;;;;;;;;;;;;;;;;;;4421869;32;19951;-70
2023/02/10 01:07:35;;;;;;;;;;;;;;;;;;4420765;32;19933;-70
2023/02/10 01:10:00;;;;;;;;;;;;;;;;;;4420740;32;20363;-70
2023/02/10 01:12:25;;;;;;;;;;;;;;;;;;4420509;32;20342;-70
2023/02/10 01:14:50;;;;;;;;;;;;;;;;;;4421085;32;20343;-70
2023/02/10 01:17:15;;;;;;;;;;;;;;;;;;4422159;32;20307;-70
2023/02/10 01:19:40;;;;;;;;;;;;;;;;;;4423898;32;19933;-69
2023/02/10 01:22:05;;;;;;;;;;;;;;;;;;4423276;32;19944;-71
2023/02/10 01:24:30;;;;;;;;;;;;;;;;;;4420678;32;19947;-71
2023/02/10 01:26:56;;;;;;;;;;;;;;;;;;4422887;32;19937;-70
2023/02/10 01:29:21;;;;;;;;;;;;;;;;;;4422117;32;19983;-70
2023/02/10 01:31:46;;;;;;;;;;;;;;;;;;4421923;32;19960;-69
2023/02/10 01:34:11;;;;;;;;;;;;;;;;;;4423260;32;20389;-69
2023/02/10 01:36:36;;;;;;;;;;;;;;;;;;4420371;32;19937;-70
2023/02/10 01:39:01;;;;;;;;;;;;;;;;;;4421415;32;20352;-70
2023/02/10 01:41:26;;;;;;;;;;;;;;;;;;4422247;32;19933;-71
2023/02/10 01:43:52;;;;;;;;;;;;;;;;;;4421373;32;19969;-69
2023/02/10 01:46:17;;;;;;;;;;;;;;;;;;4421027;32;19938;-69
2023/02/10 01:48:42;;;;;;;;;;;;;;;;;;4421913;32;19948;-69
2023/02/10 01:51:07;;;;;;;;;;;;;;;;;;4422040;32;19933;-70
2023/02/10 01:53:32;;;;;;;;;;;;;;;;;;4421334;32;20314;-70
2023/02/10 01:55:57;;;;;;;;;;;;;;;;;;4422980;32;19970;-70
2023/02/10 01:58:22;;;;;;;;;;;;;;;;;;4420701;32;19941;-72
2023/02/10 02:00:47;;;;;;;;;;;;;;;;;;4422599;32;19933;-70
2023/02/10 02:03:13;;;;;;;;;;;;;;;;;;4421701;32;19933;-70
2023/02/10 02:05:38;;;;;;;;;;;;;;;;;;4421901;32;20208;-69
2023/02/10 02:08:03;;;;;;;;;;;;;;;;;;4423116;32;20271;-70
2023/02/10 02:10:28;;;;;;;;;;;;;;;;;;4422807;32;19972;-71
2023/02/10 02:12:53;;;;;;;;;;;;;;;;;;4421256;32;19952;-72
2023/02/10 02:15:18;;;;;;;;;;;;;;;;;;4419747;32;20361;-71
2023/02/10 02:17:43;;;;;;;;;;;;;;;;;;4421092;32;19947;-70
2023/02/10 02:22:52;;;;;;;;;;;;;;;;;;4421343;32;19952;-70
2023/02/10 02:25:18;;;;;;;;;;;;;;;;;;4422583;32;19942;-70
2023/02/10 02:27:43;;;;;;;;;;;;;;;;;;4421407;32;19933;-70
2023/02/10 02:30:08;;;;;;;;;;;;;;;;;;4422198;32;19952;-70
2023/02/10 02:32:33;;;;;;;;;;;;;;;;;;4420850;32;19952;-70
2023/02/10 02:34:58;;;;;;;;;;;;;;;;;;4419689;32;19990;-71
2023/02/10 02:37:23;;;;;;;;;;;;;;;;;;4422900;32;19952;-70
2023/02/10 02:39:49;;;;;;;;;;;;;;;;;;4419392;32;19937;-70
2023/02/10 02:42:14;;;;;;;;;;;;;;;;;;4420623;32;19941;-70
2023/02/10 02:44:39;;;;;;;;;;;;;;;;;;4420869;32;20367;-69
2023/02/10 02:47:04;;;;;;;;;;;;;;;;;;4421348;32;19937;-70
2023/02/10 02:49:29;;;;;;;;;;;;;;;;;;4421164;32;19933;-70
2023/02/10 02:51:54;;;;;;;;;;;;;;;;;;4420841;32;19936;-71
2023/02/10 02:54:19;;;;;;;;;;;;;;;;;;4420416;32;19945;-70
2023/02/10 02:56:44;;;;;;;;;;;;;;;;;;4418636;32;19936;-70
2023/02/10 02:59:10;;;;;;;;;;;;;;;;;;4419737;32;19933;-70
2023/02/10 03:01:35;;;;;;;;;;;;;;;;;;4421413;32;19951;-70
2023/02/10 03:04:00;;;;;;;;;;;;;;;;;;4419731;32;19953;-69
2023/02/10 03:06:25;;;;;;;;;;;;;;;;;;4420600;32;20379;-69
2023/02/10 03:08:50;;;;;;;;;;;;;;;;;;4421321;32;19933;-70
2023/02/10 03:11:15;;;;;;;;;;;;;;;;;;4422379;32;19941;-70
2023/02/10 03:13:40;;;;;;;;;;;;;;;;;;4419878;32;19967;-70
2023/02/10 03:16:05;;;;;;;;;;;;;;;;;;4421158;32;19929;-69
2023/02/10 03:18:30;;;;;;;;;;;;;;;;;;4421154;32;19937;-70
2023/02/10 03:20:55;;;;;;;;;;;;;;;;;;4422589;32;19944;-69
2023/02/10 03:23:21;;;;;;;;;;;;;;;;;;4420559;32;19973;-70
2023/02/10 03:25:46;;;;;;;;;;;;;;;;;;4421121;32;19982;-69
2023/02/10 03:28:11;;;;;;;;;;;;;;;;;;4420695;32;19969;-70
2023/02/10 03:30:36;;;;;;;;;;;;;;;;;;4419197;32;20260;-70
2023/02/10 03:33:01;;;;;;;;;;;;;;;;;;4420295;32;19974;-68
2023/02/10 03:35:26;;;;;;;;;;;;;;;;;;4419197;32;19937;-70
2023/02/10 03:37:51;;;;;;;;;;;;;;;;;;4422896;32;19968;-69
2023/02/10 03:40:16;;;;;;;;;;;;;;;;;;4422243;32;19929;-70
2023/02/10 03:42:41;;;;;;;;;;;;;;;;;;4422954;32;20003;-70
2023/02/10 03:45:07;;;;;;;;;;;;;;;;;;4421595;32;19949;-70
2023/02/10 03:47:32;;;;;;;;;;;;;;;;;;4419893;32;20356;-69
2023/02/10 03:49:57;;;;;;;;;;;;;;;;;;4420863;32;19937;-69
2023/02/10 03:52:22;;;;;;;;;;;;;;;;;;4420702;32;19973;-70
2023/02/10 03:54:47;;;;;;;;;;;;;;;;;;4420437;32;19981;-70
2023/02/10 03:57:12;;;;;;;;;;;;;;;;;;4420320;32;19980;-71
2023/02/10 03:59:37;;;;;;;;;;;;;;;;;;4422028;32;19990;-71
2023/02/10 04:02:02;;;;;;;;;;;;;;;;;;4421383;32;19984;-70
2023/02/10 04:04:28;;;;;;;;;;;;;;;;;;4420499;32;19948;-69
2023/02/10 04:06:53;;;;;;;;;;;;;;;;;;4421907;32;19942;-71
2023/02/10 04:09:18;;;;;;;;;;;;;;;;;;4423155;32;19933;-70
2023/02/10 04:11:43;;;;;;;;;;;;;;;;;;4422869;32;20344;-71
2023/02/10 04:14:08;;;;;;;;;;;;;;;;;;4423832;32;19937;-69
2023/02/10 04:16:33;;;;;;;;;;;;;;;;;;4422992;32;19997;-70
2023/02/10 04:18:58;;;;;;;;;;;;;;;;;;4421640;32;19970;-70
2023/02/10 04:21:24;;;;;;;;;;;;;;;;;;4424583;32;19947;-70
2023/02/10 04:23:49;;;;;;;;;;;;;;;;;;4422979;32;19955;-70
2023/02/10 04:26:14;;;;;;;;;;;;;;;;;;4422749;32;19941;-70
2023/02/10 04:28:39;;;;;;;;;;;;;;;;;;4422927;32;20016;-71
2023/02/10 04:31:05;;;;;;;;;;;;;;;;;;4423469;32;19936;-70
2023/02/10 04:33:30;;;;;;;;;;;;;;;;;;4420994;32;20270;-69
2023/02/10 04:35:55;;;;;;;;;;;;;;;;;;4423974;32;19962;-70
2023/02/10 04:38:20;;;;;;;;;;;;;;;;;;4422587;32;20293;-70
2023/02/10 04:40:45;;;;;;;;;;;;;;;;;;4423566;32;20353;-70
2023/02/10 04:43:10;;;;;;;;;;;;;;;;;;4423266;32;20004;-70
2023/02/10 04:45:36;;;;;;;;;;;;;;;;;;4422394;32;19933;-70
2023/02/10 04:48:01;;;;;;;;;;;;;;;;;;4421779;32;19941;-69
2023/02/10 04:50:26;;;;;;;;;;;;;;;;;;4424484;32;19993;-70
2023/02/10 04:52:51;;;;;;;;;;;;;;;;;;4423147;32;20233;-69
2023/02/10 04:55:16;;;;;;;;;;;;;;;;;;4422926;32;19949;-69
2023/02/10 04:57:41;;;;;;;;;;;;;;;;;;4424377;32;19948;-70
2023/02/10 05:00:06;;;;;;;;;;;;;;;;;;4422760;32;19940;-69
2023/02/10 05:02:31;;;;;;;;;;;;;;;;;;4424096;32;19929;-70
2023/02/10 05:04:56;;;;;;;;;;;;;;;;;;4423437;32;19975;-68
2023/02/10 05:07:22;;;;;;;;;;;;;;;;;;4425045;32;20009;-70
2023/02/10 05:09:47;;;;;;;;;;;;;;;;;;4421425;32;19946;-68
2023/02/10 05:12:12;;;;;;;;;;;;;;;;;;4422078;32;19940;-71
2023/02/10 05:14:37;;;;;;;;;;;;;;;;;;4423027;32;20377;-70
2023/02/10 05:17:02;;;;;;;;;;;;;;;;;;4422091;32;19968;-70
2023/02/10 05:19:27;;;;;;;;;;;;;;;;;;4421822;32;19948;-70
2023/02/10 05:21:52;;;;;;;;;;;;;;;;;;4422033;32;19982;-70
2023/02/10 05:24:17;;;;;;;;;;;;;;;;;;4422674;32;19934;-70
2023/02/10 05:26:42;;;;;;;;;;;;;;;;;;4422522;32;19986;-70
2023/02/10 05:29:08;;;;;;;;;;;;;;;;;;4422838;32;19951;-69
2023/02/10 05:31:33;;;;;;;;;;;;;;;;;;4421884;32;19944;-69
2023/02/10 05:33:58;;;;;;;;;;;;;;;;;;4422234;32;20303;-70
2023/02/10 05:36:23;;;;;;;;;;;;;;;;;;4421379;32;19941;-70
2023/02/10 05:41:32;;;;;;;;;;;;;;;;;;4424010;32;19963;-70
2023/02/10 05:43:57;;;;;;;;;;;;;;;;;;4422073;32;19960;-70
2023/02/10 05:46:22;;;;;;;;;;;;;;;;;;4421136;32;20014;-70
2023/02/10 05:48:47;;;;;;;;;;;;;;;;;;4422149;32;19951;-70
2023/02/10 05:51:13;;;;;;;;;;;;;;;;;;4421174;32;19937;-70
2023/02/10 05:53:38;;;;;;;;;;;;;;;;;;4422725;32;19937;-70
2023/02/10 05:56:03;;;;;;;;;;;;;;;;;;4421284;32;19933;-70
2023/02/10 05:58:32;;;;;;;;;;;;;;;;;;4421090;32;19946;-70
2023/02/10 06:00:57;;;;;;;;;;;;;;;;;;4420854;32;20022;-70
2023/02/10 06:03:22;;;;;;;;;;;;;;;;;;4421040;32;19945;-71
2023/02/10 06:05:47;;;;;;;;;;;;;;;;;;4421074;32;19963;-70
2023/02/10 06:08:12;;;;;;;;;;;;;;;;;;4421816;32;19944;-70
2023/02/10 06:10:37;;;;;;;;;;;;;;;;;;4423772;32;20023;-70
2023/02/10 06:13:02;;;;;;;;;;;;;;;;;;4421984;32;19981;-70
2023/02/10 06:15:28;;;;;;;;;;;;;;;;;;4421749;32;19941;-70
2023/02/10 06:17:53;;;;;;;;;;;;;;;;;;4421614;32;20307;-70
2023/02/10 06:20:18;;;;;;;;;;;;;;;;;;4422454;32;19933;-69
2023/02/10 06:22:43;;;;;;;;;;;;;;;;;;4420502;32;19933;-71
2023/02/10 06:25:08;;;;;;;;;;;;;;;;;;4420887;32;19978;-71
2023/02/10 06:27:34;;;;;;;;;;;;;;;;;;4421551;32;19998;-70
2023/02/10 06:29:59;;;;;;;;;;;;;;;;;;4422122;32;20302;-71
2023/02/10 06:32:24;;;;;;;;;;;;;;;;;;4423097;32;19936;-70
2023/02/10 06:34:49;;;;;;;;;;;;;;;;;;4422375;32;19992;-70
2023/02/10 06:37:14;;;;;;;;;;;;;;;;;;4422783;32;20296;-71
2023/02/10 06:39:40;;;;;;;;;;;;;;;;;;4419655;32;20348;-70
2023/02/10 06:42:05;;;;;;;;;;;;;;;;;;4421466;32;19937;-71
2023/02/10 06:44:30;;;;;;;;;;;;;;;;;;4420219;32;19967;-71
2023/02/10 06:46:55;;;;;;;;;;;;;;;;;;4421484;32;19991;-72
2023/02/10 06:49:20;;;;;;;;;;;;;;;;;;4421398;32;19941;-71
2023/02/10 06:51:46;;;;;;;;;;;;;;;;;;4421525;32;19956;-71
2023/02/10 06:54:11;;;;;;;;;;;;;;;;;;4420863;32;19990;-71
2023/02/10 06:56:36;;;;;;;;;;;;;;;;;;4420768;32;19933;-71
2023/02/10 06:59:01;;;;;;;;;;;;;;;;;;4420672;32;20319;-69
2023/02/10 07:01:26;;;;;;;;;;;;;;;;;;4420814;32;19963;-70
2023/02/10 07:03:51;;;;;;;;;;;;;;;;;;4420377;32;20352;-72
2023/02/10 07:06:18;;;;;;;;;;;;;;;;;;4420910;32;19957;-71
2023/02/10 07:08:43;;;;;;;;;;;;;;;;;;4419425;32;19970;-71
2023/02/10 07:11:08;;;;;;;;;;;;;;;;;;4420922;32;19981;-70
2023/02/10 07:13:33;;;;;;;;;;;;;;;;;;4421299;32;19941;-70
2023/02/10 07:15:58;;;;;;;;;;;;;;;;;;4420289;32;19933;-70
2023/02/10 07:18:23;;;;;;;;;;;;;;;;;;4420391;32;19977;-71
2023/02/10 07:20:49;;;;;;;;;;;;;;;;;;4420707;32;19991;-70
2023/02/10 07:23:14;;;;;;;;;;;;;;;;;;4419823;32;20585;-71
2023/02/10 07:25:39;;;;;;;;;;;;;;;;;;4419125;32;19937;-70
2023/02/10 07:28:04;;;;;;;;;;;;;;;;;;4419618;32;19952;-71
2023/02/10 07:30:29;;;;;;;;;;;;;;;;;;4421111;32;20000;-70
2023/02/10 07:32:54;;;;;;;;;;;;;;;;;;4419652;32;19959;-70
2023/02/10 07:35:19;;;;;;;;;;;;;;;;;;4417309;32;19971;-69
2023/02/10 07:37:44;;;;;;;;;;;;;;;;;;4410837;32;19933;-71
2023/02/10 07:40:10;;;;;;;;;;;;;;;;;;4407085;32;20354;-71
2023/02/10 07:42:35;;;;;;;;;;;;;;;;;;4405217;32;19985;-70
2023/02/10 07:45:00;;;;;;;;;;;;;;;;;;4411468;32;19963;-69
2023/02/10 07:47:25;;;;;;;;;;;;;;;;;;4421438;32;19955;-73
2023/02/10 07:49:53;;;;;;;;;;;;;;;;;;4421402;32;19956;-72
2023/02/10 07:52:18;;;;;;;;;;;;;;;;;;4422761;32;20056;-70
2023/02/10 07:54:43;;;;;;;;;;;;;;;;;;4424031;32;19933;-70
2023/02/10 07:57:09;;;;;;;;;;;;;;;;;;4424714;32;19933;-69
2023/02/10 07:59:34;;;;;;;;;;;;;;;;;;4423854;32;20004;-69
2023/02/10 08:01:59;;;;;;;;;;;;;;;;;;4424933;32;19937;-73
2023/02/10 08:04:24;;;;;;;;;;;;;;;;;;4423942;32;19982;-70
2023/02/10 08:06:49;;;;;;;;;;;;;;;;;;4421234;32;19984;-70
2023/02/10 08:09:17;;;;;;;;;;;;;;;;;;4423709;32;19957;-70
2023/02/10 08:11:42;;;;;;;;;;;;;;;;;;4423706;32;19976;-70
2023/02/10 08:14:07;;;;;;;;;;;;;;;;;;4421782;32;19970;-70
2023/02/10 08:16:32;;;;;;;;;;;;;;;;;;4422907;32;20352;-70
2023/02/10 08:18:57;;;;;;;;;;;;;;;;;;4422358;32;19976;-69
2023/02/10 08:21:22;;;;;;;;;;;;;;;;;;4424537;32;19973;-69
2023/02/10 08:23:54;;;;;;;;;;;;;;;;;;4414218;32;19976;-70
2023/02/10 08:26:19;;;;;;;;;;;;;;;;;;4408578;32;19945;-70
2023/02/10 08:28:44;;;;;;;;;;;;;;;;;;4407125;32;19952;-70
2023/02/10 08:31:10;;;;;;;;;;;;;;;;;;4407795;32;19985;-70
2023/02/10 08:33:35;;;;;;;;;;;;;;;;;;4406904;32;20259;-69
2023/02/10 08:36:00;;;;;;;;;;;;;;;;;;4406005;32;19944;-69
2023/02/10 08:38:25;;;;;;;;;;;;;;;;;;4407237;32;19991;-68
2023/02/10 08:40:50;;;;;;;;;;;;;;;;;;4408744;32;19937;-69
2023/02/10 08:43:15;;;;;;;;;;;;;;;;;;4407246;32;19948;-69
2023/02/10 08:45:40;;;;;;;;;;;;;;;;;;4413435;32;19951;-69
2023/02/10 08:48:05;;;;;;;;;;;;;;;;;;4422181;32;19957;-69
2023/02/10 08:50:30;;;;;;;;;;;;;;;;;;4423231;32;19944;-69
2023/02/10 08:52:56;;;;;;;;;;;;;;;;;;4422344;32;19975;-69
2023/02/10 08:55:21;;;;;;;;;;;;;;;;;;4421097;32;19951;-68
2023/02/10 08:57:46;;;;;;;;;;;;;;;;;;4424118;32;19975;-69
2023/02/10 09:00:11;;;;;;;;;;;;;;;;;;4421940;32;19961;-69
2023/02/10 09:02:36;;;;;;;;;;;;;;;;;;4422280;32;19942;-69
2023/02/10 09:05:01;;;;;;;;;;;;;;;;;;4422355;32;20008;-70
2023/02/10 09:07:26;;;;;;;;;;;;;;;;;;4422971;32;19955;-69
2023/02/10 09:09:51;;;;;;;;;;;;;;;;;;4421944;32;20323;-69
2023/02/10 09:12:17;;;;;;;;;;;;;;;;;;4421194;32;20311;-70
2023/02/10 09:14:42;;;;;;;;;;;;;;;;;;4420236;32;20371;-70
2023/02/10 09:17:08;;;;;;;;;;;;;;;;;;4421977;32;19967;-70
2023/02/10 09:19:33;;;;;;;;;;;;;;;;;;4422385;32;19980;-70
2023/02/10 09:21:58;;;;;;;;;;;;;;;;;;4421567;32;20366;-69
2023/02/10 09:24:23;;;;;;;;;;;;;;;;;;4423392;32;19964;-69
2023/02/10 09:26:48;;;;;;;;;;;;;;;;;;4422600;32;19941;-69
2023/02/10 09:29:14;;;;;;;;;;;;;;;;;;4420389;32;20318;-69
2023/02/10 09:31:39;;;;;;;;;;;;;;;;;;4423991;32;19940;-70
2023/02/10 09:34:04;;;;;;;;;;;;;;;;;;4425376;32;20246;-71
2023/02/10 09:36:29;;;;;;;;;;;;;;;;;;4424074;32;19979;-70
2023/02/10 09:38:54;;;;;;;;;;;;;;;;;;4423549;32;19948;-70
2023/02/10 09:41:19;;;;;;;;;;;;;;;;;;4420123;32;19936;-70
2023/02/10 09:43:45;;;;;;;;;;;;;;;;;;4421614;32;20326;-70
2023/02/10 09:46:10;;;;;;;;;;;;;;;;;;4419725;32;19937;-69
2023/02/10 09:48:35;;;;;;;;;;;;;;;;;;4422717;32;19948;-69
2023/02/10 09:51:00;;;;;;;;;;;;;;;;;;4419792;32;19937;-69
2023/02/10 09:53:25;;;;;;;;;;;;;;;;;;4420934;32;19999;-69
2023/02/10 09:55:51;;;;;;;;;;;;;;;;;;4421763;32;19971;-69
2023/02/10 09:58:16;;;;;;;;;;;;;;;;;;4421572;32;19933;-70
2023/02/10 10:00:41;;;;;;;;;;;;;;;;;;4420891;32;19972;-70
2023/02/10 10:03:06;;;;;;;;;;;;;;;;;;4420574;32;19941;-70
2023/02/10 10:05:31;;;;;;;;;;;;;;;;;;4421800;32;20015;-71
2023/02/10 10:07:56;;;;;;;;;;;;;;;;;;4420230;32;19975;-70
2023/02/10 10:10:22;;;;;;;;;;;;;;;;;;4422531;32;19972;-70
2023/02/10 10:12:47;;;;;;;;;;;;;;;;;;4421227;32;20304;-70
2023/02/10 10:15:12;;;;;;;;;;;;;;;;;;4422425;32;19937;-70
2023/02/10 10:17:37;;;;;;;;;;;;;;;;;;4421059;32;20341;-72
2023/02/10 10:20:02;;;;;;;;;;;;;;;;;;4420994;32;20036;-70
2023/02/10 10:22:27;;;;;;;;;;;;;;;;;;4419638;32;19948;-70
2023/02/10 10:24:52;;;;;;;;;;;;;;;;;;4421165;32;20336;-70
2023/02/10 10:27:17;;;;;;;;;;;;;;;;;;4420649;32;19937;-70
2023/02/10 10:29:42;;;;;;;;;;;;;;;;;;4422772;32;20058;-70
2023/02/10 10:32:08;;;;;;;;;;;;;;;;;;4422312;32;19937;-70
2023/02/10 10:34:33;;;;;;;;;;;;;;;;;;4420722;32;19991;-70
2023/02/10 10:36:58;;;;;;;;;;;;;;;;;;4422150;32;19933;-69
2023/02/10 10:39:23;;;;;;;;;;;;;;;;;;4421244;32;20266;-70
2023/02/10 10:41:48;;;;;;;;;;;;;;;;;;4420596;32;19977;-70
2023/02/10 10:44:13;;;;;;;;;;;;;;;;;;4421427;32;19941;-70
2023/02/10 10:46:39;;;;;;;;;;;;;;;;;;4420353;32;19964;-70
2023/02/10 10:49:04;;;;;;;;;;;;;;;;;;4422158;32;20382;-70
2023/02/10 10:51:29;;;;;;;;;;;;;;;;;;4420918;32;19945;-70
2023/02/10 10:53:54;;;;;;;;;;;;;;;;;;4421901;32;20319;-71
2023/02/10 10:56:19;;;;;;;;;;;;;;;;;;4419441;32;20315;-69
2023/02/10 10:58:45;;;;;;;;;;;;;;;;;;4420285;32;19978;-69
2023/02/10 11:01:10;;;;;;;;;;;;;;;;;;4419874;32;19982;-70
2023/02/10 11:03:35;;;;;;;;;;;;;;;;;;4424541;32;19964;-70
2023/02/10 11:06:00;;;;;;;;;;;;;;;;;;4421490;32;19934;-70
2023/02/10 11:08:25;;;;;;;;;;;;;;;;;;4421248;32;19938;-69
2023/02/10 11:10:50;;;;;;;;;;;;;;;;;;4420589;32;19941;-70
2023/02/10 11:13:15;;;;;;;;;;;;;;;;;;4420878;32;19953;-70
2023/02/10 11:15:40;;;;;;;;;;;;;;;;;;4419430;32;19985;-70
2023/02/10 11:18:06;;;;;;;;;;;;;;;;;;4422934;32;20014;-70
2023/02/10 11:20:31;;;;;;;;;;;;;;;;;;4424528;32;19941;-70
2023/02/10 11:22:56;;;;;;;;;;;;;;;;;;4423880;32;19933;-70
2023/02/10 11:25:21;;;;;;;;;;;;;;;;;;4423652;32;20025;-69
2023/02/10 11:27:46;;;;;;;;;;;;;;;;;;4422456;32;19975;-69
2023/02/10 11:30:12;;;;;;;;;;;;;;;;;;4423677;32;20282;-70
2023/02/10 11:32:38;;;;;;;;;;;;;;;;;;4423609;32;20329;-70
2023/02/10 11:35:03;;;;;;;;;;;;;;;;;;4423349;32;19989;-70
2023/02/10 11:37:28;;;;;;;;;;;;;;;;;;4424255;32;19933;-70
2023/02/10 11:39:54;;;;;;;;;;;;;;;;;;4423458;32;19951;-70
2023/02/10 11:42:20;;;;;;;;;;;;;;;;;;4424167;32;19934;-69
2023/02/10 11:44:45;;;;;;;;;;;;;;;;;;4423744;32;19945;-69
2023/02/10 11:47:11;;;;;;;;;;;;;;;;;;4424630;32;19933;-69
2023/02/10 11:49:36;;;;;;;;;;;;;;;;;;4423580;32;19933;-70
2023/02/10 11:52:01;;;;;;;;;;;;;;;;;;4424041;32;20314;-70
2023/02/10 11:54:27;;;;;;;;;;;;;;;;;;4421864;32;20346;-69
2023/02/10 11:59:36;;;;;;;;;;;;;;;;;;4420770;32;19963;-70
2023/02/10 12:02:01;;;;;;;;;;;;;;;;;;4414249;32;19941;-70
2023/02/10 12:04:26;;;;;;;;;;;;;;;;;;4414637;32;19937;-70
2023/02/10 12:06:51;;;;;;;;;;;;;;;;;;4413386;32;19961;-70
2023/02/10 12:09:16;;;;;;;;;;;;;;;;;;4412299;32;19941;-69
2023/02/10 12:11:41;;;;;;;;;;;;;;;;;;4413996;32;19993;-69
2023/02/10 12:14:06;;;;;;;;;;;;;;;;;;4413876;32;19937;-69
2023/02/10 12:16:31;;;;;;;;;;;;;;;;;;4419042;32;19957;-70
2023/02/10 12:18:57;;;;;;;;;;;;;;;;;;4413940;32;19941;-70
2023/02/10 12:21:24;;;;;;;;;;;;;;;;;;4413579;32;19996;-70
2023/02/10 12:23:49;;;;;;;;;;;;;;;;;;4414894;32;19937;-70
2023/02/10 12:26:14;;;;;;;;;;;;;;;;;;4412350;32;20020;-70
2023/02/10 12:28:39;;;;;;;;;;;;;;;;;;4407219;32;19953;-70
2023/02/10 12:31:05;;;;;;;;;;;;;;;;;;4406256;32;19980;-69
2023/02/10 12:33:30;;;;;;;;;;;;;;;;;;4408004;32;19945;-70
2023/02/10 12:35:55;;;;;;;;;;;;;;;;;;4406195;32;19937;-68
2023/02/10 12:38:20;;;;;;;;;;;;;;;;;;4420270;32;19933;-68
2023/02/10 12:40:45;;;;;;;;;;;;;;;;;;4422884;32;19941;-69
2023/02/10 12:43:10;;;;;;;;;;;;;;;;;;4423183;32;19933;-69
2023/02/10 12:45:35;;;;;;;;;;;;;;;;;;4423312;32;19949;-69
2023/02/10 12:48:00;;;;;;;;;;;;;;;;;;4422440;32;19967;-69
2023/02/10 12:50:25;;;;;;;;;;;;;;;;;;4421535;32;19947;-69
2023/02/10 12:52:51;;;;;;;;;;;;;;;;;;4422568;32;19937;-70
2023/02/10 12:55:16;;;;;;;;;;;;;;;;;;4422637;32;19933;-71
2023/02/10 12:57:41;;;;;;;;;;;;;;;;;;4422117;32;19945;-71
2023/02/10 13:00:06;;;;;;;;;;;;;;;;;;4421495;32;19996;-70
2023/02/10 13:02:33;;;;;;;;;;;;;;;;;;4416030;32;19972;-71
2023/02/10 13:04:58;;;;;;;;;;;;;;;;;;4413943;32;19945;-69
2023/02/10 13:07:23;;;;;;;;;;;;;;;;;;4414144;32;19949;-70
2023/02/10 13:09:48;;;;;;;;;;;;;;;;;;4414369;32;19941;-70
2023/02/10 13:12:13;;;;;;;;;;;;;;;;;;4411778;32;19934;-70
2023/02/10 13:14:38;;;;;;;;;;;;;;;;;;4410900;32;19956;-70
2023/02/10 13:17:03;;;;;;;;;;;;;;;;;;4410352;32;20005;-70
2023/02/10 13:19:29;;;;;;;;;;;;;;;;;;4411337;32;19941;-71
2023/02/10 13:21:54;;;;;;;;;;;;;;;;;;4413756;32;20030;-70
2023/02/10 13:24:19;;;;;;;;;;;;;;;;;;4412928;32;19974;-70
2023/02/10 13:26:44;;;;;;;;;;;;;;;;;;4414401;32;19952;-68
2023/02/10 13:29:09;;;;;;;;;;;;;;;;;;4412465;32;19941;-71
2023/02/10 13:31:34;;;;;;;;;;;;;;;;;;4413501;32;19960;-70
2023/02/10 13:33:59;;;;;;;;;;;;;;;;;;4414322;32;19952;-70
2023/02/10 13:36:27;;;;;;;;;;;;;;;;;;4413632;32;19941;-70
2023/02/10 13:38:52;;;;;;;;;;;;;;;;;;4414503;32;19933;-71
2023/02/10 13:44:02;;;;;;;;;;;;;;;;;;4413999;32;19967;-71
2023/02/10 13:46:27;;;;;;;;;;;;;;;;;;4413284;32;19945;-70
2023/02/10 13:48:52;;;;;;;;;;;;;;;;;;4410935;32;20357;-72
2023/02/10 13:51:17;;;;;;;;;;;;;;;;;;4412269;32;19979;-72
2023/02/10 13:53:42;;;;;;;;;;;;;;;;;;4412369;32;19992;-72
2023/02/10 13:56:07;;;;;;;;;;;;;;;;;;4408410;32;19956;-71
2023/02/10 13:58:33;;;;;;;;;;;;;;;;;;4412352;32;19977;-71
2023/02/10 14:00:58;;;;;;;;;;;;;;;;;;4411640;32;19933;-71
2023/02/10 14:03:23;;;;;;;;;;;;;;;;;;4418016;32;20201;-71
2023/02/10 14:05:48;;;;;;;;;;;;;;;;;;4418944;32;19946;-72
2023/02/10 14:08:13;;;;;;;;;;;;;;;;;;4418831;32;19976;-72
2023/02/10 14:10:38;;;;;;;;;;;;;;;;;;4419407;32;19937;-71
2023/02/10 14:13:04;;;;;;;;;;;;;;;;;;4407184;32;20033;-72
2023/02/10 14:15:29;;;;;;;;;;;;;;;;;;4404930;32;19941;-71
2023/02/10 14:17:57;;;;;;;;;;;;;;;;;;4405276;32;20324;-71
2023/02/10 14:20:22;;;;;;;;;;;;;;;;;;4405280;32;20355;-70
2023/02/10 14:22:47;;;;;;;;;;;;;;;;;;4407238;32;20346;-71
2023/02/10 14:25:12;;;;;;;;;;;;;;;;;;4420966;32;20279;-72
2023/02/10 14:27:37;;;;;;;;;;;;;;;;;;4411275;32;19934;-72
2023/02/10 14:30:02;;;;;;;;;;;;;;;;;;4407411;32;19937;-71
2023/02/10 14:32:27;;;;;;;;;;;;;;;;;;4405886;32;19942;-71
2023/02/10 14:34:52;;;;;;;;;;;;;;;;;;4406289;32;19983;-72
2023/02/10 14:37:17;;;;;;;;;;;;;;;;;;4413633;32;19974;-72
2023/02/10 14:39:42;;;;;;;;;;;;;;;;;;4416354;32;20370;-72
2023/02/10 14:42:08;;;;;;;;;;;;;;;;;;4411263;32;19945;-71
2023/02/10 14:44:33;;;;;;;;;;;;;;;;;;4412873;32;19956;-72
2023/02/10 14:46:58;;;;;;;;;;;;;;;;;;4411852;32;20362;-72
2023/02/10 14:49:23;;;;;;;;;;;;;;;;;;4412563;32;19995;-72
2023/02/10 14:51:48;;;;;;;;;;;;;;;;;;4410106;32;19944;-72
2023/02/10 14:54:14;;;;;;;;;;;;;;;;;;4412316;32;20324;-72
2023/02/10 14:56:39;;;;;;;;;;;;;;;;;;4411062;32;19977;-72
2023/02/10 14:59:04;;;;;;;;;;;;;;;;;;4410702;32;19977;-72
2023/02/10 15:01:29;;;;;;;;;;;;;;;;;;4413204;32;19979;-72
2023/02/10 15:03:57;;;;;;;;;;;;;;;;;;4410671;32;19937;-71
2023/02/10 15:06:22;;;;;;;;;;;;;;;;;;4412372;32;19981;-71
2023/02/10 15:08:49;;;;;;;;;;;;;;;;;;4412203;32;19940;-71
2023/02/10 15:11:14;;;;;;;;;;;;;;;;;;4411640;32;19949;-71
2023/02/10 15:13:39;;;;;;;;;;;;;;;;;;4413705;32;19941;-71
2023/02/10 15:16:05;;;;;;;;;;;;;;;;;;4414875;32;19961;-71
2023/02/10 15:18:30;;;;;;;;;;;;;;;;;;4404794;32;20334;-71
2023/02/10 15:20:55;;;;;;;;;;;;;;;;;;4405056;32;20318;-71
2023/02/10 15:23:20;;;;;;;;;;;;;;;;;;4418682;32;19944;-72
2023/02/10 15:25:45;;;;;;;;;;;;;;;;;;4418495;32;20360;-70
2023/02/10 15:28:10;;;;;;;;;;;;;;;;;;4418716;32;19992;-70
2023/02/10 15:30:36;;;;;;;;;;;;;;;;;;4418050;32;19975;-71
2023/02/10 15:33:01;;;;;;;;;;;;;;;;;;4419909;32;19975;-70
2023/02/10 15:35:26;;;;;;;;;;;;;;;;;;4411270;32;20350;-72
2023/02/10 15:37:51;;;;;;;;;;;;;;;;;;4410638;32;19979;-71
2023/02/10 15:40:16;;;;;;;;;;;;;;;;;;4412926;32;19972;-71
2023/02/10 15:42:41;;;;;;;;;;;;;;;;;;4409422;32;19945;-72
2023/02/10 15:45:06;;;;;;;;;;;;;;;;;;4408555;32;19976;-71
2023/02/10 15:47:31;;;;;;;;;;;;;;;;;;4411821;32;20358;-72
2023/02/10 15:49:57;;;;;;;;;;;;;;;;;;4410163;32;19961;-71
2023/02/10 15:52:22;;;;;;;;;;;;;;;;;;4410256;32;19972;-71
2023/02/10 15:54:49;;;;;;;;;;;;;;;;;;4412973;32;19956;-71
2023/02/10 15:57:15;;;;;;;;;;;;;;;;;;4410712;32;19994;-70
2023/02/10 15:59:40;;;;;;;;;;;;;;;;;;4410259;32;19965;-71
2023/02/10 16:02:05;;;;;;;;;;;;;;;;;;4409529;32;19973;-71
2023/02/10 16:04:30;;;;;;;;;;;;;;;;;;4414195;32;19972;-71
2023/02/10 16:06:55;;;;;;;;;;;;;;;;;;4413905;32;19937;-72
2023/02/10 16:09:20;;;;;;;;;;;;;;;;;;4414250;32;19946;-71
2023/02/10 16:11:45;;;;;;;;;;;;;;;;;;4414381;32;20304;-71
2023/02/10 16:14:10;;;;;;;;;;;;;;;;;;4415268;32;19941;-71
2023/02/10 16:16:36;;;;;;;;;;;;;;;;;;4415011;32;19977;-70
2023/02/10 16:19:01;;;;;;;;;;;;;;;;;;4414997;32;20076;-71
2023/02/10 16:21:27;;;;;;;;;;;;;;;;;;4411591;32;20257;-71
2023/02/10 16:23:52;;;;;;;;;;;;;;;;;;4416351;32;19941;-70
2023/02/10 16:26:17;;;;;;;;;;;;;;;;;;4414002;32;20328;-71
2023/02/10 16:28:42;;;;;;;;;;;;;;;;;;4413944;32;20449;-71
2023/02/10 16:31:08;;;;;;;;;;;;;;;;;;4414083;32;19948;-70
2023/02/10 16:33:35;;;;;;;;;;;;;;;;;;4413221;32;19973;-72
2023/02/10 16:36:00;;;;;;;;;;;;;;;;;;4412549;32;19952;-72
2023/02/10 16:38:26;;;;;;;;;;;;;;;;;;4413082;32;20001;-72
2023/02/10 16:40:51;;;;;;;;;;;;;;;;;;4412149;32;19973;-72
2023/02/10 16:43:16;;;;;;;;;;;;;;;;;;4411472;32;19948;-71